Time;durP1;ratioP1;P1;durP2;ratioP2;P2;SDS_P1;SDS_P2;PMS_P1;PMS_P2;Temp;Humidity;BMP_temperature;BMP_pressure;BME280_temperature;BME280_humidity;BME280_pressure;Samples;Min_cycle;Max_cycle;Signal;HPM_P1;HPM_P2
2023/03/27 00:00:58;;;;;;;6.30;1.80;;;5.70;99.90;;;;;;5054698;28;20408;-78
2023/03/27 00:03:25;;;;;;;5.47;2.00;;;5.80;99.90;;;;;;5066737;28;20419;-78
2023/03/27 00:05:59;;;;;;;6.37;2.40;;;5.80;99.90;;;;;;5055595;28;20418;-78
2023/03/27 00:08:25;;;;;;;7.70;2.40;;;5.50;99.90;;;;;;5053368;28;20469;-78
2023/03/27 00:10:52;;;;;;;9.40;2.23;;;5.40;99.90;;;;;;5054050;28;20436;-77
2023/03/27 00:13:18;;;;;;;7.13;2.23;;;5.50;99.90;;;;;;5054247;28;20466;-78
2023/03/27 00:15:45;;;;;;;8.93;2.40;;;5.70;99.90;;;;;;5053662;28;20834;-78
2023/03/27 00:18:12;;;;;;;6.97;1.97;;;5.60;99.90;;;;;;5054775;28;20182;-78
2023/03/27 00:20:38;;;;;;;8.93;1.97;;;5.50;99.90;;;;;;5054727;28;20416;-77
2023/03/27 00:23:05;;;;;;;3.80;1.87;;;5.50;99.90;;;;;;5052777;28;20420;-78
2023/03/27 00:25:32;;;;;;;11.13;5.77;;;5.60;99.90;;;;;;5054528;28;20475;-78
2023/03/27 00:27:58;;;;;;;6.87;2.20;;;5.70;99.90;;;;;;5054010;28;21054;-77
2023/03/27 00:30:29;;;;;;;9.83;2.23;;;5.60;99.90;;;;;;5054341;28;20416;-78
2023/03/27 00:32:56;;;;;;;5.10;2.17;;;5.50;99.90;;;;;;5054543;28;21269;-78
2023/03/27 00:35:28;;;;;;;5.87;2.40;;;5.40;99.90;;;;;;5053899;28;20493;-78
2023/03/27 00:37:54;;;;;;;7.87;2.40;;;5.50;99.90;;;;;;5054124;28;20408;-78
2023/03/27 00:40:21;;;;;;;9.40;1.80;;;5.40;99.90;;;;;;5053223;28;20424;-77
2023/03/27 00:42:49;;;;;;;14.80;2.90;;;5.30;99.90;;;;;;5053924;28;20405;-78
2023/03/27 00:45:32;;;;;;;5.70;1.97;;;5.50;99.90;;;;;;5053229;28;20793;-77
2023/03/27 00:48:05;;;;;;;8.60;2.50;;;5.50;99.90;;;;;;5052014;28;20501;-78
2023/03/27 00:50:38;;;;;;;8.50;2.40;;;5.40;99.90;;;;;;5050447;28;20409;-78
2023/03/27 00:53:08;;;;;;;6.63;2.30;;;5.30;99.90;;;;;;5052180;28;20451;-75
2023/03/27 00:55:37;;;;;;;6.07;1.57;;;5.40;99.90;;;;;;5053487;28;20424;-78
2023/03/27 00:58:09;;;;;;;5.27;2.27;;;5.20;99.90;;;;;;5051862;28;20412;-78
2023/03/27 01:00:35;;;;;;;8.53;2.03;;;5.20;99.90;;;;;;5053082;28;20416;-77
2023/03/27 01:03:05;;;;;;;4.70;2.10;;;5.30;99.90;;;;;;5053592;28;20423;-77
2023/03/27 01:05:32;;;;;;;5.27;2.07;;;5.20;99.90;;;;;;5054255;28;20440;-77
2023/03/27 01:07:59;;;;;;;3.73;2.00;;;5.30;99.90;;;;;;5056098;28;20483;-78
2023/03/27 01:10:42;;;;;;;6.23;2.30;;;5.20;99.90;;;;;;5061637;28;20488;-77
2023/03/27 01:13:17;;;;;;;8.07;2.80;;;5.40;99.90;;;;;;5039614;28;20472;-78
2023/03/27 01:15:46;;;;;;;11.47;2.27;;;5.20;99.90;;;;;;5057978;28;20435;-78
2023/03/27 01:18:14;;;;;;;6.93;3.00;;;5.30;99.90;;;;;;5053329;28;20405;-78
2023/03/27 01:21:04;;;;;;;8.57;2.93;;;5.20;99.90;;;;;;5053182;28;20409;-78
2023/03/27 01:23:49;;;;;;;8.10;2.47;;;5.30;99.90;;;;;;5051725;28;20531;-78
2023/03/27 01:26:35;;;;;;;8.40;2.37;;;5.20;99.90;;;;;;5052827;28;20404;-78
2023/03/27 01:29:16;;;;;;;3.90;2.00;;;5.30;99.90;;;;;;5051468;28;20483;-78
2023/03/27 01:32:16;;;;;;;5.80;1.57;;;5.30;99.90;;;;;;5051707;28;20428;-78
2023/03/27 01:34:59;;;;;;;6.67;1.83;;;5.30;99.90;;;;;;5052122;28;20452;-77
2023/03/27 01:37:46;;;;;;;7.13;1.63;;;5.20;99.90;;;;;;5051424;28;20444;-78
2023/03/27 01:40:30;;;;;;;8.10;2.23;;;5.00;99.90;;;;;;5065300;28;20506;-78
2023/03/27 01:43:14;;;;;;;5.97;1.83;;;5.20;99.90;;;;;;5073516;28;20410;-78
2023/03/27 01:45:51;;;;;;;8.53;1.83;;;5.10;99.90;;;;;;5055321;28;20438;-78
2023/03/27 01:48:42;;;;;;;5.00;2.10;;;5.10;99.90;;;;;;5072687;28;20504;-77
2023/03/27 01:51:15;;;;;;;8.27;2.33;;;5.10;99.90;;;;;;5072674;28;20411;-78
2023/03/27 01:53:55;;;;;;;5.07;1.90;;;5.00;99.90;;;;;;5070980;28;20439;-77
2023/03/27 01:56:32;;;;;;;8.77;2.27;;;5.10;99.90;;;;;;5072900;28;20407;-78
2023/03/27 01:59:20;;;;;;;4.70;1.80;;;5.00;99.90;;;;;;5072986;28;20418;-78
2023/03/27 02:02:02;;;;;;;6.90;2.90;;;5.00;99.90;;;;;;5059840;28;21177;-78
2023/03/27 02:04:54;;;;;;;5.40;1.80;;;4.90;99.90;;;;;;5047620;28;20493;-78
2023/03/27 02:07:42;;;;;;;5.67;2.30;;;5.00;99.90;;;;;;5051922;28;20463;-78
2023/03/27 02:10:16;;;;;;;13.00;2.30;;;4.90;99.90;;;;;;5034360;28;20992;-78
2023/03/27 02:12:48;;;;;;;13.20;2.30;;;4.90;99.90;;;;;;5052404;28;20446;-78
2023/03/27 02:15:25;;;;;;;6.73;2.33;;;5.10;99.90;;;;;;5051600;28;20451;-78
2023/03/27 02:18:03;;;;;;;5.30;1.90;;;4.90;99.90;;;;;;5051466;28;20417;-78
2023/03/27 02:20:30;;;;;;;6.17;2.30;;;5.00;99.90;;;;;;5052123;28;20412;-77
2023/03/27 02:22:59;;;;;;;5.53;2.27;;;4.90;99.90;;;;;;5052999;28;20423;-77
2023/03/27 02:25:40;;;;;;;5.37;2.27;;;4.70;99.90;;;;;;5051909;28;20443;-78
2023/03/27 02:28:39;;;;;;;7.10;2.20;;;4.70;99.90;;;;;;5052319;28;20509;-78
2023/03/27 02:31:24;;;;;;;11.03;2.17;;;4.90;99.90;;;;;;5052580;28;20404;-78
2023/03/27 02:33:55;;;;;;;7.20;2.63;;;4.90;99.90;;;;;;5052138;28;20424;-78
2023/03/27 02:36:36;;;;;;;7.70;2.90;;;4.90;99.90;;;;;;5053008;28;20400;-77
2023/03/27 02:39:34;;;;;;;6.30;2.63;;;4.70;99.90;;;;;;5050232;28;20420;-78
2023/03/27 02:42:19;;;;;;;3.50;2.07;;;5.00;99.90;;;;;;5052572;28;20416;-77
2023/03/27 02:45:07;;;;;;;7.70;2.27;;;4.70;99.90;;;;;;5052189;28;20501;-77
2023/03/27 02:47:35;;;;;;;7.27;2.63;;;4.90;99.90;;;;;;5050830;28;20870;-78
2023/03/27 02:50:29;;;;;;;6.80;2.30;;;4.70;99.90;;;;;;5050604;28;20507;-77
2023/03/27 02:52:58;;;;;;;5.43;2.57;;;4.70;99.90;;;;;;5050782;28;20789;-78
2023/03/27 02:55:33;;;;;;;5.10;2.37;;;4.50;99.90;;;;;;5051014;28;20725;-77
2023/03/27 02:58:23;;;;;;;4.00;1.87;;;4.50;99.90;;;;;;5051439;28;20416;-77
2023/03/27 03:00:50;;;;;;;4.20;2.10;;;4.50;99.90;;;;;;5050382;28;20423;-77
2023/03/27 03:03:26;;;;;;;3.97;2.03;;;4.70;99.90;;;;;;5051304;28;20446;-78
2023/03/27 03:05:56;;;;;;;7.70;2.23;;;4.70;99.90;;;;;;5051725;28;20414;-77
2023/03/27 03:08:22;;;;;;;4.00;2.30;;;4.50;99.90;;;;;;5050364;28;20467;-77
2023/03/27 03:10:48;;;;;;;5.73;1.90;;;4.40;99.90;;;;;;5050331;28;20476;-78
2023/03/27 03:13:16;;;;;;;5.23;2.00;;;4.60;99.90;;;;;;5050996;28;20459;-78
2023/03/27 03:15:44;;;;;;;7.63;2.37;;;4.50;99.90;;;;;;5049929;28;20478;-77
2023/03/27 03:18:11;;;;;;;4.70;1.97;;;4.30;99.90;;;;;;5049868;28;20420;-77
2023/03/27 03:20:38;;;;;;;5.60;2.23;;;4.60;99.90;;;;;;5051540;28;20503;-77
2023/03/27 03:23:05;;;;;;;9.40;2.17;;;4.30;99.90;;;;;;5052432;28;20416;-77
2023/03/27 03:25:31;;;;;;;10.47;2.20;;;4.40;99.90;;;;;;5051226;28;20440;-78
2023/03/27 03:27:57;;;;;;;4.37;1.90;;;4.40;99.90;;;;;;5050109;28;20456;-78
2023/03/27 03:30:27;;;;;;;5.10;2.17;;;4.40;99.90;;;;;;5051390;28;20423;-78
2023/03/27 03:32:53;;;;;;;7.83;2.50;;;4.30;99.90;;;;;;5051138;28;20173;-78
2023/03/27 03:35:21;;;;;;;6.47;2.33;;;4.50;99.90;;;;;;5033134;28;21070;-77
2023/03/27 03:37:47;;;;;;;4.27;2.07;;;4.60;99.90;;;;;;5050434;28;20459;-77
2023/03/27 03:40:13;;;;;;;2.90;2.00;;;4.50;99.90;;;;;;5063390;28;20430;-78
2023/03/27 03:42:50;;;;;;;3.60;1.80;;;4.40;99.90;;;;;;5071024;28;20873;-77
2023/03/27 03:45:16;;;;;;;6.27;2.30;;;4.60;99.90;;;;;;5052881;28;20215;-77
2023/03/27 03:47:43;;;;;;;8.03;2.43;;;4.40;99.90;;;;;;5071074;28;20465;-77
2023/03/27 03:50:09;;;;;;;6.97;2.00;;;4.20;99.90;;;;;;5071204;28;20412;-78
2023/03/27 03:52:36;;;;;;;14.07;2.50;;;4.10;99.90;;;;;;5071525;28;20498;-77
2023/03/27 03:55:05;;;;;;;4.00;1.93;;;4.30;99.90;;;;;;5069558;28;20489;-77
2023/03/27 03:57:30;;;;;;;5.17;2.10;;;4.10;99.90;;;;;;5071113;28;20431;-77
2023/03/27 03:59:59;;;;;;;12.93;2.90;;;4.10;99.90;;;;;;5069454;28;20423;-77
2023/03/27 04:02:28;;;;;;;5.93;2.00;;;4.20;99.90;;;;;;5069291;28;20267;-77
2023/03/27 04:04:58;;;;;;;8.30;2.00;;;3.90;99.90;;;;;;5069025;28;20459;-78
2023/03/27 04:07:30;;;;;;;4.17;1.97;;;4.00;99.90;;;;;;5070099;28;20542;-78
2023/03/27 04:09:57;;;;;;;3.50;2.00;;;4.20;99.90;;;;;;5070507;28;21093;-77
2023/03/27 04:12:22;;;;;;;4.37;1.77;;;4.30;99.90;;;;;;5069166;28;20547;-77
2023/03/27 04:14:48;;;;;;;5.07;1.93;;;4.10;99.90;;;;;;5070266;28;20874;-78
2023/03/27 04:17:14;;;;;;;7.27;2.60;;;4.10;99.90;;;;;;5069205;28;20189;-77
2023/03/27 04:19:40;;;;;;;4.43;1.80;;;4.00;99.90;;;;;;5070436;28;20181;-78
2023/03/27 04:22:06;;;;;;;10.10;2.60;;;4.10;99.90;;;;;;5069605;28;20181;-78
2023/03/27 04:24:32;;;;;;;5.53;2.70;;;4.30;99.90;;;;;;5068645;28;20534;-78
2023/03/27 04:27:00;;;;;;;7.40;2.00;;;4.00;99.90;;;;;;5070610;28;20502;-77
2023/03/27 04:29:29;;;;;;;6.57;2.07;;;4.10;99.90;;;;;;5060591;28;20205;-77
2023/03/27 04:31:58;;;;;;;5.60;2.83;;;4.00;99.90;;;;;;5047866;28;20432;-77
2023/03/27 04:34:24;;;;;;;3.87;1.83;;;3.90;99.90;;;;;;5050604;28;20467;-76
2023/03/27 04:36:51;;;;;;;6.40;2.10;;;4.10;99.90;;;;;;5049912;28;20454;-76
2023/03/27 04:39:19;;;;;;;5.27;1.90;;;4.00;99.90;;;;;;5051406;28;20534;-77
2023/03/27 04:41:48;;;;;;;8.00;2.30;;;3.90;99.90;;;;;;5032928;28;20419;-77
2023/03/27 04:44:16;;;;;;;7.17;2.90;;;4.20;99.90;;;;;;5050031;28;20933;-78
2023/03/27 04:46:48;;;;;;;10.27;4.50;;;3.90;99.90;;;;;;5050089;28;20413;-77
2023/03/27 04:49:17;;;;;;;5.50;3.07;;;4.00;99.90;;;;;;5051409;28;20420;-77
2023/03/27 04:51:44;;;;;;;4.30;2.33;;;4.00;99.90;;;;;;5049837;28;20855;-77
2023/03/27 04:54:10;;;;;;;6.00;2.13;;;3.90;99.90;;;;;;5050876;28;20464;-77
2023/03/27 04:56:35;;;;;;;9.57;2.50;;;4.00;99.90;;;;;;5050064;28;20929;-77
2023/03/27 04:59:05;;;;;;;6.00;2.27;;;4.20;99.90;;;;;;5049397;28;20186;-77
2023/03/27 05:01:31;;;;;;;7.13;2.53;;;4.10;99.90;;;;;;5050873;28;20184;-77
2023/03/27 05:03:57;;;;;;;5.70;2.27;;;4.20;99.90;;;;;;5050600;28;20432;-77
2023/03/27 05:06:22;;;;;;;5.13;2.30;;;4.20;99.90;;;;;;5051331;28;20416;-74
2023/03/27 05:08:49;;;;;;;8.43;3.00;;;4.00;99.90;;;;;;5050947;28;20502;-74
2023/03/27 05:11:15;;;;;;;5.73;2.47;;;4.20;99.90;;;;;;5051369;28;20416;-75
2023/03/27 05:13:41;;;;;;;6.93;2.50;;;4.30;99.90;;;;;;5050846;28;20467;-75
2023/03/27 05:16:08;;;;;;;5.97;2.40;;;4.20;99.90;;;;;;5051433;28;20170;-77
2023/03/27 05:18:37;;;;;;;6.03;2.40;;;4.20;99.90;;;;;;5049182;28;20239;-77
2023/03/27 05:21:03;;;;;;;7.80;2.17;;;4.10;99.90;;;;;;5049232;28;20431;-77
2023/03/27 05:23:29;;;;;;;6.33;2.50;;;4.10;99.90;;;;;;5050196;28;20447;-77
2023/03/27 05:25:55;;;;;;;6.70;2.83;;;4.20;99.90;;;;;;5050666;28;20412;-77
2023/03/27 05:28:22;;;;;;;6.40;2.40;;;4.20;99.90;;;;;;5048991;28;20472;-77
2023/03/27 05:30:48;;;;;;;4.57;2.50;;;4.00;99.90;;;;;;5050312;28;20443;-78
2023/03/27 05:33:15;;;;;;;4.33;2.20;;;4.20;99.90;;;;;;5050495;28;20886;-77
2023/03/27 05:35:44;;;;;;;5.17;2.67;;;4.10;99.90;;;;;;5050524;28;20413;-78
2023/03/27 05:38:10;;;;;;;5.77;1.93;;;4.30;99.90;;;;;;5044461;28;20423;-77
2023/03/27 05:40:36;;;;;;;5.00;2.10;;;4.20;99.90;;;;;;5048708;28;20431;-77
2023/03/27 05:43:02;;;;;;;3.90;2.70;;;4.20;99.90;;;;;;5050136;28;20416;-77
2023/03/27 05:45:28;;;;;;;3.43;2.23;;;4.30;99.90;;;;;;5050321;28;20209;-77
2023/03/27 05:47:56;;;;;;;4.57;2.47;;;4.40;99.90;;;;;;5050140;28;20452;-77
2023/03/27 05:50:25;;;;;;;7.87;2.57;;;4.30;99.90;;;;;;5050080;28;20669;-78
2023/03/27 05:53:00;;;;;;;6.40;2.47;;;4.30;99.90;;;;;;5046960;28;20933;-77
2023/03/27 05:55:27;;;;;;;4.90;2.33;;;4.30;99.90;;;;;;5046677;28;20875;-78
2023/03/27 05:57:53;;;;;;;6.90;2.20;;;4.30;99.90;;;;;;5049360;28;20424;-76
2023/03/27 06:00:26;;;;;;;6.00;2.50;;;4.50;99.90;;;;;;5049529;28;20481;-78
2023/03/27 06:03:00;;;;;;;6.77;2.00;;;4.50;99.90;;;;;;5049771;28;20788;-77
2023/03/27 06:05:28;;;;;;;4.47;2.20;;;4.40;99.90;;;;;;5048414;28;20491;-78
2023/03/27 06:07:57;;;;;;;6.53;2.90;;;4.40;99.90;;;;;;5048110;28;20547;-77
2023/03/27 06:10:25;;;;;;;7.50;2.90;;;4.70;99.90;;;;;;5048318;28;20450;-77
2023/03/27 06:13:03;;;;;;;7.13;2.93;;;4.40;99.90;;;;;;5049454;28;20432;-78
2023/03/27 06:15:29;;;;;;;8.30;2.40;;;4.40;99.90;;;;;;5046566;28;20824;-77
2023/03/27 06:17:55;;;;;;;9.17;2.70;;;4.60;99.90;;;;;;5048988;28;20417;-77
2023/03/27 06:20:23;;;;;;;8.93;2.50;;;4.50;99.90;;;;;;5047623;28;20452;-78
2023/03/27 06:22:55;;;;;;;7.30;2.53;;;4.60;99.90;;;;;;5041646;28;20409;-77
2023/03/27 06:25:24;;;;;;;7.23;2.57;;;4.60;99.90;;;;;;5036659;28;20457;-78
2023/03/27 06:27:50;;;;;;;5.93;2.70;;;4.80;99.90;;;;;;5035491;28;20460;-77
2023/03/27 06:30:22;;;;;;;6.03;1.80;;;4.70;99.90;;;;;;5046542;28;20408;-77
2023/03/27 06:32:50;;;;;;;4.43;2.40;;;4.80;99.90;;;;;;5041099;28;20421;-77
2023/03/27 06:35:17;;;;;;;4.60;2.43;;;4.80;99.90;;;;;;5043820;28;20432;-77
2023/03/27 06:37:45;;;;;;;4.17;2.13;;;4.80;99.90;;;;;;5049039;28;20780;-77
2023/03/27 06:40:21;;;;;;;6.00;2.20;;;5.20;99.90;;;;;;5043221;28;20453;-77
2023/03/27 06:43:05;;;;;;;5.53;2.80;;;5.20;99.90;;;;;;5032115;28;20422;-77
2023/03/27 06:45:33;;;;;;;12.27;2.50;;;5.40;99.90;;;;;;5039906;28;20437;-77
2023/03/27 06:48:01;;;;;;;4.20;2.23;;;5.60;99.90;;;;;;5036285;28;20464;-77
2023/03/27 06:50:29;;;;;;;4.63;1.83;;;5.60;99.90;;;;;;5038250;28;20428;-77
2023/03/27 06:52:55;;;;;;;2.87;1.77;;;5.60;99.90;;;;;;5047124;28;20488;-77
2023/03/27 06:55:22;;;;;;;3.23;1.90;;;5.70;99.90;;;;;;5037205;28;20449;-77
2023/03/27 06:57:51;;;;;;;8.70;2.23;;;5.70;99.90;;;;;;5038428;28;20436;-77
2023/03/27 07:00:18;;;;;;;4.20;1.80;;;5.80;99.90;;;;;;5040366;28;20424;-77
2023/03/27 07:02:47;;;;;;;5.73;1.93;;;5.80;99.90;;;;;;5043172;28;20750;-77
2023/03/27 07:05:14;;;;;;;4.10;1.93;;;6.00;99.90;;;;;;5062830;28;20552;-77
2023/03/27 07:07:41;;;;;;;6.97;2.10;;;5.80;99.90;;;;;;5035003;28;20457;-78
2023/03/27 07:10:08;;;;;;;6.43;2.37;;;5.80;99.90;;;;;;5042007;28;20404;-77
2023/03/27 07:12:34;;;;;;;8.80;2.60;;;6.10;99.90;;;;;;5045574;28;20440;-77
2023/03/27 07:14:59;;;;;;;6.80;2.30;;;6.10;99.90;;;;;;5036311;28;20880;-78
2023/03/27 07:17:25;;;;;;;5.20;2.20;;;6.00;99.90;;;;;;5044662;28;20451;-78
2023/03/27 07:19:51;;;;;;;4.20;1.67;;;6.30;99.90;;;;;;5046908;28;20209;-76
2023/03/27 07:22:16;;;;;;;10.47;2.10;;;6.40;99.90;;;;;;5042081;28;20179;-77
2023/03/27 07:24:42;;;;;;;5.07;2.40;;;6.40;99.90;;;;;;5027682;28;20663;-77
2023/03/27 07:27:08;;;;;;;5.13;2.60;;;6.50;99.90;;;;;;5029185;28;20190;-78
2023/03/27 07:29:35;;;;;;;2.83;1.47;;;6.50;99.90;;;;;;5031571;28;20186;-77
2023/03/27 07:32:02;;;;;;;3.50;1.70;;;6.50;99.90;;;;;;5046056;28;20420;-77
2023/03/27 07:34:28;;;;;;;2.67;1.20;;;6.50;99.90;;;;;;5048967;28;20479;-77
2023/03/27 07:36:56;;;;;;;3.57;2.20;;;6.60;99.90;;;;;;5048984;28;20451;-77
2023/03/27 07:39:22;;;;;;;2.23;1.40;;;6.80;99.90;;;;;;5038886;28;20491;-77
2023/03/27 07:41:48;;;;;;;2.60;1.50;;;6.80;99.90;;;;;;5029315;28;20417;-77
2023/03/27 07:44:13;;;;;;;4.70;1.67;;;7.00;99.90;;;;;;5037229;28;20440;-77
2023/03/27 07:46:40;;;;;;;3.00;1.30;;;7.10;99.90;;;;;;5049430;28;20188;-77
2023/03/27 07:49:07;;;;;;;3.17;1.40;;;7.00;99.90;;;;;;5041328;28;20232;-77
2023/03/27 07:51:34;;;;;;;4.23;1.60;;;7.30;99.90;;;;;;5027780;28;20501;-77
2023/03/27 07:54:00;;;;;;;7.30;1.77;;;7.30;99.90;;;;;;5028997;28;20429;-77
2023/03/27 07:56:25;;;;;;;3.17;1.83;;;7.40;99.90;;;;;;5037466;28;20420;-77
2023/03/27 07:58:52;;;;;;;3.33;1.20;;;7.30;99.90;;;;;;5048127;28;20408;-77
2023/03/27 08:01:17;;;;;;;6.60;2.10;;;7.40;99.90;;;;;;5049676;28;20213;-77
2023/03/27 08:03:43;;;;;;;2.97;1.17;;;7.20;99.90;;;;;;5051953;28;20459;-78
2023/03/27 08:06:09;;;;;;;4.73;1.37;;;7.20;99.90;;;;;;5052015;28;20722;-77
2023/03/27 08:08:35;;;;;;;3.23;1.30;;;7.00;99.90;;;;;;5051783;28;20308;-77
2023/03/27 08:11:02;;;;;;;3.10;1.20;;;7.20;99.90;;;;;;5051765;28;20416;-78
2023/03/27 08:13:28;;;;;;;1.90;0.80;;;7.00;99.90;;;;;;5051122;28;20444;-77
2023/03/27 08:16:13;;;;;;;1.97;1.20;;;7.30;99.90;;;;;;5051917;28;20928;-78
2023/03/27 08:18:39;;;;;;;3.77;1.53;;;7.30;99.90;;;;;;5050317;28;20189;-78
2023/03/27 08:21:07;;;;;;;4.20;1.50;;;7.40;99.90;;;;;;5051620;28;20420;-78
2023/03/27 08:23:34;;;;;;;2.23;1.43;;;7.40;99.90;;;;;;5051727;28;20436;-78
2023/03/27 08:26:00;;;;;;;7.10;1.40;;;7.30;99.90;;;;;;5050498;28;20412;-78
2023/03/27 08:28:31;;;;;;;2.80;1.17;;;7.40;99.90;;;;;;5051379;28;20459;-76
2023/03/27 08:30:58;;;;;;;4.53;1.10;;;7.40;99.90;;;;;;5051457;28;20450;-78
2023/03/27 08:33:26;;;;;;;4.37;1.60;;;7.40;99.90;;;;;;5051303;28;20412;-78
2023/03/27 08:35:53;;;;;;;2.90;1.57;;;7.40;99.90;;;;;;5051746;28;20408;-79
2023/03/27 08:38:19;;;;;;;3.63;1.70;;;7.20;99.90;;;;;;5033574;28;20412;-78
2023/03/27 08:40:48;;;;;;;2.67;1.40;;;7.40;99.90;;;;;;5049882;28;20419;-78
2023/03/27 08:43:25;;;;;;;4.70;1.53;;;7.40;99.90;;;;;;5049868;28;20423;-78
2023/03/27 08:46:02;;;;;;;6.93;2.10;;;7.60;99.90;;;;;;5050205;28;20503;-78
2023/03/27 08:48:32;;;;;;;2.97;2.07;;;7.40;99.90;;;;;;5049953;28;20491;-78
2023/03/27 08:51:07;;;;;;;3.97;1.80;;;7.30;99.90;;;;;;5050001;28;20408;-78
2023/03/27 08:53:55;;;;;;;3.87;1.93;;;7.50;99.90;;;;;;5051141;28;20427;-78
2023/03/27 08:56:23;;;;;;;4.00;1.53;;;7.40;99.90;;;;;;5049905;28;20925;-78
2023/03/27 08:58:49;;;;;;;4.03;1.80;;;7.50;99.90;;;;;;5051160;28;20535;-78
2023/03/27 09:01:32;;;;;;;3.67;1.57;;;7.40;99.90;;;;;;5049746;28;20419;-78
2023/03/27 09:04:20;;;;;;;4.10;1.97;;;7.60;99.90;;;;;;5051025;28;20515;-78
2023/03/27 09:07:16;;;;;;;3.77;1.60;;;7.80;99.90;;;;;;5049931;28;20401;-77
2023/03/27 09:09:51;;;;;;;8.13;1.60;;;7.70;99.90;;;;;;5033113;28;20416;-77
2023/03/27 09:12:39;;;;;;;4.43;1.83;;;7.90;99.90;;;;;;5049966;28;20432;-78
2023/03/27 09:15:41;;;;;;;3.33;1.60;;;7.80;99.90;;;;;;5050614;28;20527;-77
2023/03/27 09:18:32;;;;;;;2.90;1.50;;;7.90;99.90;;;;;;5039203;28;20481;-77
2023/03/27 09:21:10;;;;;;;4.90;2.00;;;7.90;99.90;;;;;;5049634;28;20855;-78
2023/03/27 09:23:38;;;;;;;3.63;1.40;;;7.80;99.90;;;;;;5050760;28;20424;-78
2023/03/27 09:26:09;;;;;;;5.07;1.80;;;7.90;99.90;;;;;;5049404;28;20407;-78
2023/03/27 09:28:49;;;;;;;2.63;1.70;;;7.70;99.90;;;;;;5050476;28;20462;-77
2023/03/27 09:31:26;;;;;;;3.33;1.10;;;8.10;99.90;;;;;;5050639;28;20473;-78
2023/03/27 09:33:53;;;;;;;6.13;1.47;;;8.00;99.90;;;;;;5050293;28;20511;-78
2023/03/27 09:36:18;;;;;;;2.30;0.90;;;8.10;99.90;;;;;;5049978;28;20820;-78
2023/03/27 09:38:49;;;;;;;5.80;1.03;;;8.10;99.90;;;;;;5048968;28;20416;-77
2023/03/27 09:41:26;;;;;;;4.27;1.33;;;8.40;99.90;;;;;;5050110;28;20178;-78
2023/03/27 09:44:02;;;;;;;2.30;1.07;;;8.30;99.90;;;;;;5048841;28;20517;-77
2023/03/27 09:46:28;;;;;;;6.30;1.83;;;8.60;99.90;;;;;;5049194;28;20789;-78
2023/03/27 09:49:05;;;;;;;2.67;1.30;;;8.80;99.90;;;;;;5050034;28;20495;-77
2023/03/27 09:51:45;;;;;;;1.40;0.93;;;8.60;99.90;;;;;;5050235;28;20523;-77
2023/03/27 09:54:13;;;;;;;1.53;1.20;;;8.60;99.90;;;;;;5050078;28;20925;-78
2023/03/27 09:56:48;;;;;;;5.17;2.20;;;8.50;99.90;;;;;;5050073;28;20404;-77
2023/03/27 09:59:24;;;;;;;4.20;1.43;;;8.50;99.90;;;;;;5048797;28;20423;-77
2023/03/27 10:01:55;;;;;;;4.40;1.30;;;8.30;99.90;;;;;;5049917;28;20494;-77
2023/03/27 10:04:23;;;;;;;2.90;1.80;;;8.40;99.90;;;;;;5048416;28;20837;-78
2023/03/27 10:07:05;;;;;;;2.87;1.30;;;8.40;99.90;;;;;;5049665;28;20427;-78
2023/03/27 10:09:34;;;;;;;2.47;1.30;;;8.60;99.90;;;;;;5049776;28;20416;-77
2023/03/27 10:12:16;;;;;;;5.00;1.57;;;8.80;99.90;;;;;;5048451;28;20416;-77
2023/03/27 10:14:48;;;;;;;2.33;1.37;;;8.80;99.90;;;;;;5048873;28;20427;-77
2023/03/27 10:17:24;;;;;;;4.97;1.20;;;8.90;99.90;;;;;;5049726;28;20409;-77
2023/03/27 10:20:12;;;;;;;3.27;1.20;;;8.90;99.90;;;;;;5048182;28;20412;-77
2023/03/27 10:22:40;;;;;;;2.50;1.47;;;9.00;99.90;;;;;;5049570;28;20415;-77
2023/03/27 10:25:35;;;;;;;1.20;1.10;;;8.90;99.90;;;;;;5049181;28;20428;-77
2023/03/27 10:28:08;;;;;;;4.27;1.10;;;9.10;99.90;;;;;;5049297;28;20459;-77
2023/03/27 10:30:36;;;;;;;3.83;0.90;;;9.20;99.90;;;;;;5050354;28;20491;-76
2023/03/27 10:33:03;;;;;;;2.30;1.20;;;9.40;99.90;;;;;;5053741;28;20443;-78
2023/03/27 10:35:34;;;;;;;1.90;1.20;;;9.10;99.80;;;;;;5051025;28;20485;-78
2023/03/27 10:38:02;;;;;;;2.50;1.23;;;8.90;99.20;;;;;;5052234;28;20408;-78
2023/03/27 10:40:35;;;;;;;3.67;1.40;;;9.00;99.90;;;;;;5066226;28;21047;-77
2023/03/27 10:43:12;;;;;;;2.33;1.10;;;8.90;99.90;;;;;;5071924;28;20411;-78
2023/03/27 10:46:07;;;;;;;1.90;1.10;;;9.10;99.90;;;;;;5073263;28;20415;-76
2023/03/27 10:48:38;;;;;;;2.03;1.00;;;9.10;99.90;;;;;;5068741;28;20459;-78
2023/03/27 10:51:12;;;;;;;1.60;1.27;;;9.20;99.90;;;;;;5072672;28;20920;-78
2023/03/27 10:53:50;;;;;;;2.63;1.20;;;9.20;99.90;;;;;;5071491;28;20423;-78
2023/03/27 10:56:25;;;;;;;2.87;1.00;;;9.10;99.00;;;;;;5073759;28;20486;-77
2023/03/27 10:59:04;;;;;;;2.90;1.40;;;9.30;99.60;;;;;;5071476;28;20824;-78
2023/03/27 11:01:36;;;;;;;2.43;1.07;;;9.40;98.50;;;;;;5072726;28;20456;-78
2023/03/27 11:04:20;;;;;;;2.00;1.17;;;9.50;99.30;;;;;;5054719;28;20528;-79
2023/03/27 11:06:49;;;;;;;1.77;0.80;;;9.60;99.30;;;;;;5071832;28;20427;-78
2023/03/27 11:09:22;;;;;;;2.67;0.90;;;9.80;99.90;;;;;;5072401;28;20455;-76
2023/03/27 11:11:56;;;;;;;3.07;0.83;;;9.90;99.90;;;;;;5072547;28;20427;-78
2023/03/27 11:14:47;;;;;;;2.70;1.13;;;10.10;99.40;;;;;;5072599;28;20728;-78
2023/03/27 11:17:17;;;;;;;2.67;1.17;;;10.30;99.00;;;;;;5072776;28;20495;-78
2023/03/27 11:19:49;;;;;;;4.03;1.30;;;10.40;98.60;;;;;;5072429;28;20411;-78
2023/03/27 11:22:22;;;;;;;3.93;1.20;;;10.40;98.00;;;;;;5072962;28;20412;-77
2023/03/27 11:24:54;;;;;;;1.87;0.80;;;10.40;97.00;;;;;;5054006;28;20443;-77
2023/03/27 11:27:34;;;;;;;2.57;1.30;;;10.40;96.70;;;;;;5070615;28;20415;-77
2023/03/27 11:30:30;;;;;;;2.33;1.07;;;10.40;96.50;;;;;;5072652;28;20439;-78
2023/03/27 11:33:06;;;;;;;2.03;1.07;;;10.20;96.70;;;;;;5071926;28;20404;-77
2023/03/27 11:36:18;;;;;;;2.00;1.10;;;10.10;96.20;;;;;;5071568;28;20423;-77
2023/03/27 11:38:54;;;;;;;1.80;1.00;;;10.00;97.10;;;;;;5042919;28;21095;-77
2023/03/27 11:41:20;;;;;;;2.57;0.90;;;9.80;97.50;;;;;;5074491;28;20619;-78
2023/03/27 11:43:45;;;;;;;1.87;1.10;;;9.90;98.20;;;;;;5076949;28;20439;-78
2023/03/27 11:46:42;;;;;;;2.50;0.80;;;9.90;98.70;;;;;;5079141;28;20755;-77
2023/03/27 11:49:26;;;;;;;1.63;0.97;;;10.20;98.60;;;;;;5077389;28;20234;-78
2023/03/27 11:52:22;;;;;;;2.33;0.80;;;10.20;99.80;;;;;;5079019;28;20415;-78
2023/03/27 11:54:59;;;;;;;1.57;0.80;;;10.20;99.30;;;;;;5078581;28;20441;-78
2023/03/27 11:57:25;;;;;;;3.40;1.20;;;10.20;99.90;;;;;;5078877;28;20402;-78
2023/03/27 12:00:06;;;;;;;1.90;0.90;;;10.30;99.90;;;;;;5077483;28;20411;-78
2023/03/27 12:02:55;;;;;;;1.60;1.00;;;10.10;99.90;;;;;;5078964;28;20940;-78
2023/03/27 12:05:42;;;;;;;1.23;0.80;;;10.10;99.90;;;;;;5077928;28;20435;-76
2023/03/27 12:08:34;;;;;;;1.33;0.83;;;9.90;99.90;;;;;;5078345;28;20515;-77
2023/03/27 12:11:02;;;;;;;2.47;1.00;;;9.80;99.90;;;;;;5060385;28;20410;-77
2023/03/27 12:13:36;;;;;;;1.60;1.30;;;9.80;99.90;;;;;;5078326;28;20450;-78
2023/03/27 12:16:26;;;;;;;2.90;1.13;;;9.90;99.90;;;;;;5077687;28;20472;-78
2023/03/27 12:19:22;;;;;;;2.60;0.93;;;9.50;99.90;;;;;;5078472;28;20474;-78
2023/03/27 12:22:12;;;;;;;3.80;1.00;;;9.20;99.90;;;;;;5078612;28;20438;-77
2023/03/27 12:24:49;;;;;;;1.50;1.10;;;9.30;99.90;;;;;;5076419;28;20419;-78
2023/03/27 12:27:41;;;;;;;2.43;1.20;;;9.00;99.90;;;;;;5077524;28;20788;-78
2023/03/27 12:30:24;;;;;;;7.63;1.07;;;9.10;99.90;;;;;;5077582;28;20435;-78
2023/03/27 12:33:20;;;;;;;3.70;0.90;;;9.30;99.90;;;;;;5077644;28;20786;-78
2023/03/27 12:35:52;;;;;;;2.50;1.20;;;9.50;99.90;;;;;;5076560;28;20400;-78
2023/03/27 12:38:39;;;;;;;4.20;1.10;;;9.60;99.90;;;;;;5067272;28;20408;-78
2023/03/27 12:41:27;;;;;;;3.23;1.03;;;9.60;99.90;;;;;;5076611;28;20419;-78
2023/03/27 12:43:59;;;;;;;1.90;0.97;;;9.80;99.90;;;;;;5077071;28;20472;-77
2023/03/27 12:46:27;;;;;;;1.40;0.97;;;9.70;99.90;;;;;;5077163;28;20418;-78
2023/03/27 12:48:53;;;;;;;3.57;0.93;;;9.90;99.90;;;;;;5075000;28;20581;-77
2023/03/27 12:51:34;;;;;;;3.03;0.80;;;10.00;99.90;;;;;;5056576;28;20504;-77
2023/03/27 12:54:18;;;;;;;1.93;1.03;;;10.10;99.90;;;;;;5074872;28;20201;-78
2023/03/27 12:56:51;;;;;;;3.13;1.17;;;10.00;98.90;;;;;;5074481;28;20415;-76
2023/03/27 12:59:25;;;;;;;5.03;1.00;;;10.00;99.30;;;;;;5073494;28;20748;-76
2023/03/27 13:02:03;;;;;;;4.43;1.27;;;10.00;98.10;;;;;;5074198;28;20425;-77
2023/03/27 13:04:35;;;;;;;1.93;1.00;;;9.90;98.50;;;;;;5074720;28;20528;-77
2023/03/27 13:07:20;;;;;;;1.13;0.80;;;9.90;98.90;;;;;;5073336;28;20412;-76
2023/03/27 13:09:57;;;;;;;2.43;0.70;;;9.60;99.90;;;;;;5074156;28;21216;-77
2023/03/27 13:12:50;;;;;;;2.03;0.70;;;9.40;99.90;;;;;;5073012;28;20899;-77
2023/03/27 13:15:54;;;;;;;2.63;0.90;;;9.20;99.90;;;;;;5072272;28;20438;-78
2023/03/27 13:18:38;;;;;;;3.37;1.10;;;9.30;99.90;;;;;;5072242;28;20418;-78
2023/03/27 13:21:17;;;;;;;3.47;0.80;;;9.20;99.90;;;;;;5073276;28;20514;-78
2023/03/27 13:24:12;;;;;;;2.03;1.03;;;9.20;99.90;;;;;;5072023;28;20491;-76
2023/03/27 13:27:11;;;;;;;2.80;1.10;;;9.00;99.90;;;;;;5055348;28;20474;-77